Terminal Aerodrome Forecast
Issued by NWS Twin Cities, MN

Home | Current Version | Previous Version | Text Only | Print | Product List | Glossary On
Versions: 1 2 3 4 5 6 7 8 9 10 11 12 13 14 15 16 17 18 19 20 21 22 23 24 25 26 27 28 29 30 31 32 33 34 35 36 37
000
FTUS43 KMPX 260603 CCA
TAFMSP
TAF COR
KMSP 260603Z 2606/2712 35006KT P6SM -SHRA BKN006 OVC012
     FM260900 32004KT 6SM -DZ BR OVC006
     FM261400 28007KT 6SM BR OVC008
     FM261800 28010KT P6SM OVC015
     FM262100 29012KT P6SM OVC025
     FM270600 30007KT P6SM SCT025=

USA.gov is the U.S. government's official web portal to all federal, state and local government web resources and services.